sensor_id;sensor_type;location;lat;lon;timestamp;pressure;altitude;pressure_sealevel;temperature;humidity
49216;BME280;45943;53.148;8.204;2023-01-31T00:00:55;102049.28;;;6.48;100.00
49216;BME280;45943;53.148;8.204;2023-01-31T00:03:21;102054.56;;;6.49;100.00
49216;BME280;45943;53.148;8.204;2023-01-31T00:05:47;102060.03;;;6.46;100.00
49216;BME280;45943;53.148;8.204;2023-01-31T00:08:13;102056.69;;;6.41;100.00
49216;BME280;45943;53.148;8.204;2023-01-31T00:10:40;102069.28;;;6.38;100.00
49216;BME280;45943;53.148;8.204;2023-01-31T00:13:06;102066.50;;;6.41;100.00
49216;BME280;45943;53.148;8.204;2023-01-31T00:15:32;102060.16;;;6.43;100.00
49216;BME280;45943;53.148;8.204;2023-01-31T00:17:58;102067.28;;;6.43;100.00
49216;BME280;45943;53.148;8.204;2023-01-31T00:20:24;102057.44;;;6.45;100.00
49216;BME280;45943;53.148;8.204;2023-01-31T00:22:50;102055.63;;;6.45;100.00
49216;BME280;45943;53.148;8.204;2023-01-31T00:25:16;102053.81;;;6.46;100.00
49216;BME280;45943;53.148;8.204;2023-01-31T00:27:42;102063.56;;;6.47;100.00
49216;BME280;45943;53.148;8.204;2023-01-31T00:30:08;102067.91;;;6.49;100.00
49216;BME280;45943;53.148;8.204;2023-01-31T00:32:35;102061.81;;;6.46;100.00
49216;BME280;45943;53.148;8.204;2023-01-31T00:35:01;102062.59;;;6.48;100.00
49216;BME280;45943;53.148;8.204;2023-01-31T00:37:27;102055.47;;;6.48;100.00
49216;BME280;45943;53.148;8.204;2023-01-31T00:39:53;102065.16;;;6.51;100.00
49216;BME280;45943;53.148;8.204;2023-01-31T00:42:19;102052.69;;;6.51;100.00
49216;BME280;45943;53.148;8.204;2023-01-31T00:44:44;102048.34;;;6.49;100.00
49216;BME280;45943;53.148;8.204;2023-01-31T00:47:10;102050.91;;;6.52;100.00
49216;BME280;45943;53.148;8.204;2023-01-31T00:49:36;102050.91;;;6.52;100.00
49216;BME280;45943;53.148;8.204;2023-01-31T00:52:04;102056.16;;;6.53;100.00
49216;BME280;45943;53.148;8.204;2023-01-31T00:54:30;102044.56;;;6.54;100.00
49216;BME280;45943;53.148;8.204;2023-01-31T00:56:56;102045.34;;;6.56;100.00
49216;BME280;45943;53.148;8.204;2023-01-31T00:59:21;102034.13;;;6.50;100.00
49216;BME280;45943;53.148;8.204;2023-01-31T01:01:47;102035.31;;;6.43;100.00
49216;BME280;45943;53.148;8.204;2023-01-31T01:04:13;102040.56;;;6.44;100.00
49216;BME280;45943;53.148;8.204;2023-01-31T01:06:39;102035.38;;;6.41;100.00
49216;BME280;45943;53.148;8.204;2023-01-31T01:09:06;102023.94;;;6.39;100.00
49216;BME280;45943;53.148;8.204;2023-01-31T01:11:32;102030.13;;;6.40;100.00
49216;BME280;45943;53.148;8.204;2023-01-31T01:13:59;102028.19;;;6.43;100.00
49216;BME280;45943;53.148;8.204;2023-01-31T01:16:27;102019.31;;;6.43;100.00
49216;BME280;45943;53.148;8.204;2023-01-31T01:18:56;102026.53;;;6.41;100.00
49216;BME280;45943;53.148;8.204;2023-01-31T01:21:23;102034.44;;;6.42;100.00
49216;BME280;45943;53.148;8.204;2023-01-31T01:23:51;102029.03;;;6.44;100.00
49216;BME280;45943;53.148;8.204;2023-01-31T01:26:23;102033.59;;;6.42;100.00
49216;BME280;45943;53.148;8.204;2023-01-31T01:28:51;102040.72;;;6.41;100.00
49216;BME280;45943;53.148;8.204;2023-01-31T01:31:20;102041.34;;;6.46;100.00
49216;BME280;45943;53.148;8.204;2023-01-31T01:33:47;102034.97;;;6.50;100.00
49216;BME280;45943;53.148;8.204;2023-01-31T01:36:14;102029.91;;;6.44;100.00
49216;BME280;45943;53.148;8.204;2023-01-31T01:38:43;102028.03;;;6.46;100.00
49216;BME280;45943;53.148;8.204;2023-01-31T01:41:10;102034.44;;;6.42;100.00
49216;BME280;45943;53.148;8.204;2023-01-31T01:43:38;102027.31;;;6.43;100.00
49216;BME280;45943;53.148;8.204;2023-01-31T01:46:09;102036.31;;;6.40;100.00
49216;BME280;45943;53.148;8.204;2023-01-31T01:48:38;102036.31;;;6.40;100.00
49216;BME280;45943;53.148;8.204;2023-01-31T01:51:08;102040.72;;;6.41;100.00
49216;BME280;45943;53.148;8.204;2023-01-31T01:53:35;102040.72;;;6.41;100.00
49216;BME280;45943;53.148;8.204;2023-01-31T01:56:09;102042.44;;;6.42;100.00
49216;BME280;45943;53.148;8.204;2023-01-31T01:58:42;102047.63;;;6.45;100.00
49216;BME280;45943;53.148;8.204;2023-01-31T02:01:15;102052.03;;;6.46;100.00
49216;BME280;45943;53.148;8.204;2023-01-31T02:03:42;102047.38;;;6.51;100.00
49216;BME280;45943;53.148;8.204;2023-01-31T02:06:09;102045.50;;;6.53;100.00
49216;BME280;45943;53.148;8.204;2023-01-31T02:08:36;102059.91;;;6.49;100.00
49216;BME280;45943;53.148;8.204;2023-01-31T02:11:20;102058.28;;;6.45;100.00
49216;BME280;45943;53.148;8.204;2023-01-31T02:13:51;102062.22;;;6.37;100.00
49216;BME280;45943;53.148;8.204;2023-01-31T02:16:22;102067.44;;;6.40;100.00
49216;BME280;45943;53.148;8.204;2023-01-31T02:18:48;102071.91;;;6.39;100.00
49216;BME280;45943;53.148;8.204;2023-01-31T02:27:07;102066.03;;;6.31;100.00
49216;BME280;45943;53.148;8.204;2023-01-31T02:32:47;102066.13;;;6.28;100.00
49216;BME280;45943;53.148;8.204;2023-01-31T02:41:00;102068.16;;;6.23;100.00
49216;BME280;45943;53.148;8.204;2023-01-31T02:43:44;102055.78;;;6.22;100.00
49216;BME280;45943;53.148;8.204;2023-01-31T02:52:07;102055.09;;;6.17;100.00
49216;BME280;45943;53.148;8.204;2023-01-31T02:54:44;102043.63;;;6.15;100.00
49216;BME280;45943;53.148;8.204;2023-01-31T02:57:37;102041.03;;;6.13;100.00
49216;BME280;45943;53.148;8.204;2023-01-31T03:00:05;102042.78;;;6.14;100.00
49216;BME280;45943;53.148;8.204;2023-01-31T03:02:33;102038.31;;;6.15;100.00
49216;BME280;45943;53.148;8.204;2023-01-31T03:04:59;102035.78;;;6.12;100.00
49216;BME280;45943;53.148;8.204;2023-01-31T03:07:26;102032.25;;;6.11;100.00
49216;BME280;45943;53.148;8.204;2023-01-31T03:15:14;102020.13;;;6.04;100.00
49216;BME280;45943;53.148;8.204;2023-01-31T03:17:56;102018.38;;;6.03;100.00
49216;BME280;45943;53.148;8.204;2023-01-31T03:20:37;102015.53;;;6.08;100.00
49216;BME280;45943;53.148;8.204;2023-01-31T03:23:30;102021.66;;;6.10;100.00
49216;BME280;45943;53.148;8.204;2023-01-31T03:26:00;102015.53;;;6.08;100.00
49216;BME280;45943;53.148;8.204;2023-01-31T03:28:31;102017.53;;;6.02;100.00
49216;BME280;45943;53.148;8.204;2023-01-31T03:33:37;102000.88;;;5.97;100.00
49216;BME280;45943;53.148;8.204;2023-01-31T03:38:52;101995.59;;;5.96;100.00
49216;BME280;45943;53.148;8.204;2023-01-31T03:41:30;102003.41;;;6.00;100.00
49216;BME280;45943;53.148;8.204;2023-01-31T03:44:07;102004.94;;;6.06;100.00
49216;BME280;45943;53.148;8.204;2023-01-31T03:46:39;102005.94;;;6.03;100.00
49216;BME280;45943;53.148;8.204;2023-01-31T03:49:11;101998.09;;;6.00;100.00
49216;BME280;45943;53.148;8.204;2023-01-31T03:51:44;102007.88;;;6.00;100.00
49216;BME280;45943;53.148;8.204;2023-01-31T03:54:22;102001.72;;;5.98;100.00
49216;BME280;45943;53.148;8.204;2023-01-31T03:57:03;102005.25;;;5.98;100.00
49216;BME280;45943;53.148;8.204;2023-01-31T03:59:35;102005.31;;;5.97;100.00
49216;BME280;45943;53.148;8.204;2023-01-31T04:02:05;102011.44;;;5.99;100.00
49216;BME280;45943;53.148;8.204;2023-01-31T04:04:57;102003.34;;;6.02;100.00
49216;BME280;45943;53.148;8.204;2023-01-31T04:07:25;102004.31;;;5.99;100.00
49216;BME280;45943;53.148;8.204;2023-01-31T04:09:51;102002.66;;;5.97;100.00
49216;BME280;45943;53.148;8.204;2023-01-31T04:12:17;102002.47;;;6.01;100.00
49216;BME280;45943;53.148;8.204;2023-01-31T04:14:43;101993.75;;;5.98;100.00
49216;BME280;45943;53.148;8.204;2023-01-31T04:17:09;101992.81;;;5.99;100.00
49216;BME280;45943;53.148;8.204;2023-01-31T04:19:35;101989.28;;;5.98;100.00
49216;BME280;45943;53.148;8.204;2023-01-31T04:22:01;101997.63;;;5.91;100.00
49216;BME280;45943;53.148;8.204;2023-01-31T04:24:27;101980.63;;;5.93;100.00
49216;BME280;45943;53.148;8.204;2023-01-31T04:26:54;101984.97;;;5.96;100.00
49216;BME280;45943;53.148;8.204;2023-01-31T04:29:20;101981.50;;;5.94;100.00
49216;BME280;45943;53.148;8.204;2023-01-31T04:31:46;101978.91;;;5.92;100.00
49216;BME280;45943;53.148;8.204;2023-01-31T04:34:12;101979.69;;;5.94;100.00
49216;BME280;45943;53.148;8.204;2023-01-31T04:36:41;101972.56;;;5.95;100.00
49216;BME280;45943;53.148;8.204;2023-01-31T04:39:08;101969.78;;;5.98;100.00
49216;BME280;45943;53.148;8.204;2023-01-31T04:41:35;101968.44;;;6.08;100.00
49216;BME280;45943;53.148;8.204;2023-01-31T04:44:01;101974.50;;;6.12;100.00
49216;BME280;45943;53.148;8.204;2023-01-31T04:46:27;101971.94;;;6.10;100.00
49216;BME280;45943;53.148;8.204;2023-01-31T04:48:53;101965.84;;;6.07;100.00
49216;BME280;45943;53.148;8.204;2023-01-31T04:51:18;101969.38;;;6.07;100.00
49216;BME280;45943;53.148;8.204;2023-01-31T04:53:44;101969.66;;;6.01;100.00
49216;BME280;45943;53.148;8.204;2023-01-31T04:56:10;101961.19;;;5.91;100.00
49216;BME280;45943;53.148;8.204;2023-01-31T04:58:36;101961.84;;;5.96;100.00
49216;BME280;45943;53.148;8.204;2023-01-31T05:01:02;101958.19;;;5.99;100.00
49216;BME280;45943;53.148;8.204;2023-01-31T05:03:28;101961.84;;;5.96;100.00
49216;BME280;45943;53.148;8.204;2023-01-31T05:05:54;101965.38;;;5.97;100.00
49216;BME280;45943;53.148;8.204;2023-01-31T05:08:20;101956.66;;;5.93;100.00
49216;BME280;45943;53.148;8.204;2023-01-31T05:10:46;101946.09;;;5.92;100.00
49216;BME280;45943;53.148;8.204;2023-01-31T05:13:13;101934.56;;;5.91;100.00
49216;BME280;45943;53.148;8.204;2023-01-31T05:15:39;101926.59;;;5.90;100.00
49216;BME280;45943;53.148;8.204;2023-01-31T05:18:05;101932.69;;;5.93;100.00
49216;BME280;45943;53.148;8.204;2023-01-31T05:20:40;101930.75;;;5.97;100.00
49216;BME280;45943;53.148;8.204;2023-01-31T05:23:07;101923.91;;;5.91;100.00
49216;BME280;45943;53.148;8.204;2023-01-31T05:25:34;101922.69;;;5.98;100.00
49216;BME280;45943;53.148;8.204;2023-01-31T05:28:01;101927.84;;;6.03;100.00
49216;BME280;45943;53.148;8.204;2023-01-31T05:30:27;101918.19;;;6.00;100.00
49216;BME280;45943;53.148;8.204;2023-01-31T05:32:53;101928.88;;;5.99;100.00
49216;BME280;45943;53.148;8.204;2023-01-31T05:35:19;101925.25;;;6.01;100.00
49216;BME280;45943;53.148;8.204;2023-01-31T05:37:45;101930.44;;;6.04;100.00
49216;BME280;45943;53.148;8.204;2023-01-31T05:40:12;101922.19;;;6.11;100.00
49216;BME280;45943;53.148;8.204;2023-01-31T05:42:40;101919.56;;;6.09;100.00
49216;BME280;45943;53.148;8.204;2023-01-31T05:45:06;101923.22;;;6.07;100.00
49216;BME280;45943;53.148;8.204;2023-01-31T05:47:33;101913.25;;;6.12;100.00
49216;BME280;45943;53.148;8.204;2023-01-31T05:50:00;101901.81;;;6.10;100.00
49216;BME280;45943;53.148;8.204;2023-01-31T05:52:26;101890.22;;;6.11;100.00
49216;BME280;45943;53.148;8.204;2023-01-31T05:54:52;101895.13;;;6.20;100.00
49216;BME280;45943;53.148;8.204;2023-01-31T05:57:18;101894.97;;;6.23;100.00
49216;BME280;45943;53.148;8.204;2023-01-31T05:59:44;101894.03;;;6.24;100.00
49216;BME280;45943;53.148;8.204;2023-01-31T06:02:10;101898.25;;;6.29;100.00
49216;BME280;45943;53.148;8.204;2023-01-31T06:04:36;101893.97;;;6.25;100.00
49216;BME280;45943;53.148;8.204;2023-01-31T06:07:05;101899.13;;;6.28;100.00
49216;BME280;45943;53.148;8.204;2023-01-31T06:09:31;101883.13;;;6.30;100.00
49216;BME280;45943;53.148;8.204;2023-01-31T06:11:57;101888.47;;;6.28;100.00
49216;BME280;45943;53.148;8.204;2023-01-31T06:14:23;101885.97;;;6.25;100.00
49216;BME280;45943;53.148;8.204;2023-01-31T06:16:49;101880.50;;;6.28;100.00
49216;BME280;45943;53.148;8.204;2023-01-31T06:19:15;101870.66;;;6.30;100.00
49216;BME280;45943;53.148;8.204;2023-01-31T06:21:41;101871.50;;;6.31;100.00
49216;BME280;45943;53.148;8.204;2023-01-31T06:24:07;101878.56;;;6.32;100.00
49216;BME280;45943;53.148;8.204;2023-01-31T06:26:33;101874.19;;;6.31;100.00
49216;BME280;45943;53.148;8.204;2023-01-31T06:28:59;101851.94;;;6.32;100.00
49216;BME280;45943;53.148;8.204;2023-01-31T06:31:25;101847.97;;;6.41;100.00
49216;BME280;45943;53.148;8.204;2023-01-31T06:33:51;101853.38;;;6.39;100.00
49216;BME280;45943;53.148;8.204;2023-01-31T06:36:17;101847.09;;;6.40;100.00
49216;BME280;45943;53.148;8.204;2023-01-31T06:38:43;101835.34;;;6.44;100.00
49216;BME280;45943;53.148;8.204;2023-01-31T06:41:09;101833.19;;;6.33;100.00
49216;BME280;45943;53.148;8.204;2023-01-31T06:43:35;101837.31;;;6.41;100.00
49216;BME280;45943;53.148;8.204;2023-01-31T06:46:01;101825.13;;;6.35;100.00
49216;BME280;45943;53.148;8.204;2023-01-31T06:48:27;101838.28;;;6.38;100.00
49216;BME280;45943;53.148;8.204;2023-01-31T06:50:53;101824.25;;;6.35;100.00
49216;BME280;45943;53.148;8.204;2023-01-31T06:53:19;101824.69;;;6.44;100.00
49216;BME280;45943;53.148;8.204;2023-01-31T06:55:45;101809.63;;;6.43;100.00
49216;BME280;45943;53.148;8.204;2023-01-31T06:58:11;101809.63;;;6.43;100.00
49216;BME280;45943;53.148;8.204;2023-01-31T07:00:37;101800.34;;;6.52;100.00
49216;BME280;45943;53.148;8.204;2023-01-31T07:03:03;101805.81;;;6.49;100.00
49216;BME280;45943;53.148;8.204;2023-01-31T07:05:29;101798.97;;;6.43;100.00
49216;BME280;45943;53.148;8.204;2023-01-31T07:07:55;101802.34;;;6.47;100.00
49216;BME280;45943;53.148;8.204;2023-01-31T07:10:21;101797.53;;;6.36;100.00
49216;BME280;45943;53.148;8.204;2023-01-31T07:12:47;101801.13;;;6.35;100.00
49216;BME280;45943;53.148;8.204;2023-01-31T07:15:13;101807.69;;;6.47;100.00
49216;BME280;45943;53.148;8.204;2023-01-31T07:17:39;101796.25;;;6.45;100.00
49216;BME280;45943;53.148;8.204;2023-01-31T07:20:05;101788.81;;;6.51;100.00
49216;BME280;45943;53.148;8.204;2023-01-31T07:22:32;101779.97;;;6.51;100.00
49216;BME280;45943;53.148;8.204;2023-01-31T07:24:58;101773.59;;;6.53;100.00
49216;BME280;45943;53.148;8.204;2023-01-31T07:27:24;101768.13;;;6.56;100.00
49216;BME280;45943;53.148;8.204;2023-01-31T07:29:50;101763.63;;;6.40;100.00
49216;BME280;45943;53.148;8.204;2023-01-31T07:32:16;101757.78;;;6.50;100.00
49216;BME280;45943;53.148;8.204;2023-01-31T07:34:42;101762.88;;;6.55;100.00
49216;BME280;45943;53.148;8.204;2023-01-31T07:37:08;101777.38;;;6.49;100.00
49216;BME280;45943;53.148;8.204;2023-01-31T07:39:34;101741.53;;;6.55;100.00
49216;BME280;45943;53.148;8.204;2023-01-31T07:42:00;101735.91;;;6.61;100.00
49216;BME280;45943;53.148;8.204;2023-01-31T07:44:26;101734.31;;;6.57;100.00
49216;BME280;45943;53.148;8.204;2023-01-31T07:46:52;101743.50;;;6.51;100.00
49216;BME280;45943;53.148;8.204;2023-01-31T07:49:19;101734.50;;;6.54;100.00
49216;BME280;45943;53.148;8.204;2023-01-31T07:51:45;101744.84;;;6.60;100.00
49216;BME280;45943;53.148;8.204;2023-01-31T07:54:11;101729.47;;;6.65;100.00
49216;BME280;45943;53.148;8.204;2023-01-31T07:56:37;101715.84;;;6.71;100.00
49216;BME280;45943;53.148;8.204;2023-01-31T07:59:03;101707.28;;;6.65;100.00
49216;BME280;45943;53.148;8.204;2023-01-31T08:01:29;101709.00;;;6.66;100.00
49216;BME280;45943;53.148;8.204;2023-01-31T08:04:14;101703.59;;;6.67;100.00
49216;BME280;45943;53.148;8.204;2023-01-31T08:06:42;101701.75;;;6.69;100.00
49216;BME280;45943;53.148;8.204;2023-01-31T08:09:10;101695.22;;;6.75;100.00
49216;BME280;45943;53.148;8.204;2023-01-31T08:11:36;101704.16;;;6.74;100.00
49216;BME280;45943;53.148;8.204;2023-01-31T08:14:02;101697.81;;;6.76;100.00
49216;BME280;45943;53.148;8.204;2023-01-31T08:16:28;101677.09;;;6.64;100.00
49216;BME280;45943;53.148;8.204;2023-01-31T08:18:56;101664.41;;;6.69;100.00
49216;BME280;45943;53.148;8.204;2023-01-31T08:21:22;101651.47;;;6.79;100.00
49216;BME280;45943;53.148;8.204;2023-01-31T08:23:48;101661.41;;;6.75;100.00
49216;BME280;45943;53.148;8.204;2023-01-31T08:26:15;101648.00;;;6.77;100.00
49216;BME280;45943;53.148;8.204;2023-01-31T08:28:43;101649.97;;;6.73;100.00
49216;BME280;45943;53.148;8.204;2023-01-31T08:31:13;101639.56;;;6.69;100.00
49216;BME280;45943;53.148;8.204;2023-01-31T08:33:47;101635.53;;;6.77;100.00
49216;BME280;45943;53.148;8.204;2023-01-31T08:36:16;101638.06;;;6.80;100.00
49216;BME280;45943;53.148;8.204;2023-01-31T08:38:44;101641.69;;;6.79;100.00
49216;BME280;45943;53.148;8.204;2023-01-31T08:41:11;101644.25;;;6.81;100.00
49216;BME280;45943;53.148;8.204;2023-01-31T08:43:37;101647.91;;;6.78;100.00
49216;BME280;45943;53.148;8.204;2023-01-31T08:46:04;101642.13;;;6.87;100.00
49216;BME280;45943;53.148;8.204;2023-01-31T08:48:31;101635.78;;;6.90;100.00
49216;BME280;45943;53.148;8.204;2023-01-31T08:50:59;101620.47;;;6.94;100.00
49216;BME280;45943;53.148;8.204;2023-01-31T08:53:29;101628.78;;;6.87;100.00
49216;BME280;45943;53.148;8.204;2023-01-31T08:56:01;101619.69;;;6.92;100.00
49216;BME280;45943;53.148;8.204;2023-01-31T08:58:30;101627.34;;;6.98;100.00
49216;BME280;45943;53.148;8.204;2023-01-31T09:01:00;101629.78;;;7.02;100.00
49216;BME280;45943;53.148;8.204;2023-01-31T09:03:27;101616.44;;;7.02;100.00
49216;BME280;45943;53.148;8.204;2023-01-31T09:05:53;101611.97;;;7.03;100.00
49216;BME280;45943;53.148;8.204;2023-01-31T09:08:19;101619.03;;;7.04;100.00
49216;BME280;45943;53.148;8.204;2023-01-31T09:10:52;101637.38;;;7.10;100.00
49216;BME280;45943;53.148;8.204;2023-01-31T09:13:18;101620.94;;;7.02;100.00
49216;BME280;45943;53.148;8.204;2023-01-31T09:15:44;101619.88;;;7.04;100.00
49216;BME280;45943;53.148;8.204;2023-01-31T09:18:10;101634.88;;;7.07;100.00
49216;BME280;45943;53.148;8.204;2023-01-31T09:20:36;101619.72;;;7.07;100.00
49216;BME280;45943;53.148;8.204;2023-01-31T09:23:02;101624.75;;;7.13;100.00
49216;BME280;45943;53.148;8.204;2023-01-31T09:25:28;101615.47;;;7.21;100.00
49216;BME280;45943;53.148;8.204;2023-01-31T09:27:54;101615.38;;;7.22;100.00
49216;BME280;45943;53.148;8.204;2023-01-31T09:30:20;101614.06;;;7.13;100.00
49216;BME280;45943;53.148;8.204;2023-01-31T09:32:46;101615.78;;;7.14;100.00
49216;BME280;45943;53.148;8.204;2023-01-31T09:35:14;101610.38;;;7.16;100.00
49216;BME280;45943;53.148;8.204;2023-01-31T09:37:41;101614.47;;;7.06;100.00
49216;BME280;45943;53.148;8.204;2023-01-31T09:40:08;101608.13;;;7.08;100.00
49216;BME280;45943;53.148;8.204;2023-01-31T09:42:47;101605.66;;;7.21;100.00
49216;BME280;45943;53.148;8.204;2023-01-31T09:45:17;101603.16;;;7.18;100.00
49216;BME280;45943;53.148;8.204;2023-01-31T09:47:56;101595.31;;;7.15;100.00
49216;BME280;45943;53.148;8.204;2023-01-31T09:53:05;101586.88;;;7.23;100.00
49216;BME280;45943;53.148;8.204;2023-01-31T09:55:36;101583.09;;;7.27;100.00
49216;BME280;45943;53.148;8.204;2023-01-31T10:01:48;101562.19;;;7.19;100.00
49216;BME280;45943;53.148;8.204;2023-01-31T10:04:11;101560.97;;;7.25;100.00
49216;BME280;45943;53.148;8.204;2023-01-31T10:06:48;101565.22;;;7.29;100.00
49216;BME280;45943;53.148;8.204;2023-01-31T10:14:44;101547.81;;;7.37;100.00
49216;BME280;45943;53.148;8.204;2023-01-31T10:20:15;101546.88;;;7.38;100.00
49216;BME280;45943;53.148;8.204;2023-01-31T10:25:33;101527.06;;;7.42;100.00
49216;BME280;45943;53.148;8.204;2023-01-31T10:28:11;101535.06;;;7.42;100.00
49216;BME280;45943;53.148;8.204;2023-01-31T10:33:22;101531.56;;;7.42;100.00
49216;BME280;45943;53.148;8.204;2023-01-31T10:35:51;101559.88;;;7.44;100.00
49216;BME280;45943;53.148;8.204;2023-01-31T10:38:23;101541.72;;;7.51;100.00
49216;BME280;45943;53.148;8.204;2023-01-31T10:40:58;101544.63;;;7.46;100.00
49216;BME280;45943;53.148;8.204;2023-01-31T10:43:36;101541.63;;;7.53;100.00
49216;BME280;45943;53.148;8.204;2023-01-31T10:46:09;101539.81;;;7.53;100.00
49216;BME280;45943;53.148;8.204;2023-01-31T10:48:36;101535.94;;;7.59;100.00
49216;BME280;45943;53.148;8.204;2023-01-31T10:56:05;101526.78;;;7.63;100.00
49216;BME280;45943;53.148;8.204;2023-01-31T10:58:34;101530.41;;;7.62;100.00
49216;BME280;45943;53.148;8.204;2023-01-31T11:01:02;101522.50;;;7.60;100.00
49216;BME280;45943;53.148;8.204;2023-01-31T11:03:33;101528.50;;;7.64;100.00
49216;BME280;45943;53.148;8.204;2023-01-31T11:05:59;101525.84;;;7.64;100.00
49216;BME280;45943;53.148;8.204;2023-01-31T11:08:28;101531.00;;;7.67;100.00
49216;BME280;45943;53.148;8.204;2023-01-31T11:10:56;101527.66;;;7.63;100.00
49216;BME280;45943;53.148;8.204;2023-01-31T11:13:23;101519.66;;;7.63;100.00
49216;BME280;45943;53.148;8.204;2023-01-31T11:15:49;101530.00;;;7.54;100.00
49216;BME280;45943;53.148;8.204;2023-01-31T11:18:42;101531.00;;;7.67;100.00
49216;BME280;45943;53.148;8.204;2023-01-31T11:21:22;101522.94;;;7.68;100.00
49216;BME280;45943;53.148;8.204;2023-01-31T11:23:50;101516.88;;;7.65;100.00
49216;BME280;45943;53.148;8.204;2023-01-31T11:26:26;101504.28;;;7.67;100.00
49216;BME280;45943;53.148;8.204;2023-01-31T11:28:55;101507.56;;;7.72;100.00
49216;BME280;45943;53.148;8.204;2023-01-31T11:31:28;101496.81;;;7.73;100.00
49216;BME280;45943;53.148;8.204;2023-01-31T11:34:03;101497.50;;;7.77;100.00
49216;BME280;45943;53.148;8.204;2023-01-31T11:36:42;101495.09;;;7.72;100.00
49216;BME280;45943;53.148;8.204;2023-01-31T11:42:11;101505.19;;;7.67;100.00
49216;BME280;45943;53.148;8.204;2023-01-31T11:47:25;101503.19;;;7.71;100.00
49216;BME280;45943;53.148;8.204;2023-01-31T11:50:18;101492.50;;;7.71;100.00
49216;BME280;45943;53.148;8.204;2023-01-31T11:52:45;101509.19;;;7.74;100.00
49216;BME280;45943;53.148;8.204;2023-01-31T11:55:18;101504.91;;;7.72;100.00
49216;BME280;45943;53.148;8.204;2023-01-31T11:57:44;101494.91;;;7.75;100.00
49216;BME280;45943;53.148;8.204;2023-01-31T12:00:50;101492.31;;;7.74;100.00
49216;BME280;45943;53.148;8.204;2023-01-31T12:03:07;101491.22;;;7.78;100.00
49216;BME280;45943;53.148;8.204;2023-01-31T12:05:41;101487.69;;;7.78;100.00
49216;BME280;45943;53.148;8.204;2023-01-31T12:11:05;101491.28;;;7.76;100.00
49216;BME280;45943;53.148;8.204;2023-01-31T12:13:59;101478.53;;;7.82;100.00
49216;BME280;45943;53.148;8.204;2023-01-31T12:16:31;101484.63;;;7.84;100.00
49216;BME280;45943;53.148;8.204;2023-01-31T12:21:43;101482.66;;;7.87;100.00
49216;BME280;45943;53.148;8.204;2023-01-31T12:27:01;101470.16;;;7.88;100.00
49216;BME280;45943;53.148;8.204;2023-01-31T12:29:51;101467.66;;;7.85;100.00
49216;BME280;45943;53.148;8.204;2023-01-31T12:32:37;101464.53;;;7.92;100.00
49216;BME280;45943;53.148;8.204;2023-01-31T12:35:31;101463.25;;;7.84;100.00
49216;BME280;45943;53.148;8.204;2023-01-31T12:41:10;101431.44;;;7.95;100.00
49216;BME280;45943;53.148;8.204;2023-01-31T12:43:49;101431.25;;;7.98;100.00
49216;BME280;45943;53.148;8.204;2023-01-31T12:46:29;101434.13;;;8.09;100.00
49216;BME280;45943;53.148;8.204;2023-01-31T12:57:21;101433.59;;;8.18;100.00
49216;BME280;45943;53.148;8.204;2023-01-31T13:00:01;101430.72;;;8.21;100.00
49216;BME280;45943;53.148;8.204;2023-01-31T13:06:05;101426.41;;;8.19;100.00
49216;BME280;45943;53.148;8.204;2023-01-31T13:08:44;101420.97;;;8.20;100.00
49216;BME280;45943;53.148;8.204;2023-01-31T13:11:19;101420.22;;;8.18;100.00
49216;BME280;45943;53.148;8.204;2023-01-31T13:16:28;101413.06;;;8.19;100.00
49216;BME280;45943;53.148;8.204;2023-01-31T13:19:02;101420.78;;;8.23;100.00
49216;BME280;45943;53.148;8.204;2023-01-31T13:21:32;101410.94;;;8.24;100.00
49216;BME280;45943;53.148;8.204;2023-01-31T13:24:07;101405.72;;;8.22;100.00
49216;BME280;45943;53.148;8.204;2023-01-31T13:26:41;101394.81;;;8.25;100.00
49216;BME280;45943;53.148;8.204;2023-01-31T13:29:31;101396.38;;;8.29;100.00
49216;BME280;45943;53.148;8.204;2023-01-31T13:32:04;101407.81;;;8.31;100.00
49216;BME280;45943;53.148;8.204;2023-01-31T13:37:15;101404.91;;;8.36;100.00
49216;BME280;45943;53.148;8.204;2023-01-31T13:39:56;101389.84;;;8.33;100.00
49216;BME280;45943;53.148;8.204;2023-01-31T13:42:26;101395.13;;;8.35;100.00
49216;BME280;45943;53.148;8.204;2023-01-31T13:44:53;101393.31;;;8.36;100.00
49216;BME280;45943;53.148;8.204;2023-01-31T13:47:22;101390.56;;;8.37;100.00
49216;BME280;45943;53.148;8.204;2023-01-31T13:50:03;101398.72;;;8.34;100.00
49216;BME280;45943;53.148;8.204;2023-01-31T13:52:43;101409.84;;;8.42;100.00
49216;BME280;45943;53.148;8.204;2023-01-31T13:55:47;101403.84;;;8.39;100.00
49216;BME280;45943;53.148;8.204;2023-01-31T13:58:19;101407.88;;;8.46;100.00
49216;BME280;45943;53.148;8.204;2023-01-31T14:09:24;101415.38;;;8.53;100.00
49216;BME280;45943;53.148;8.204;2023-01-31T14:12:24;101416.34;;;8.52;100.00
49216;BME280;45943;53.148;8.204;2023-01-31T14:14:47;101417.00;;;8.42;100.00
49216;BME280;45943;53.148;8.204;2023-01-31T14:27:18;101415.97;;;8.58;100.00
49216;BME280;45943;53.148;8.204;2023-01-31T14:29:48;101427.41;;;8.60;100.00
49216;BME280;45943;53.148;8.204;2023-01-31T14:32:27;101423.03;;;8.59;100.00
49216;BME280;45943;53.148;8.204;2023-01-31T14:43:24;101418.59;;;8.73;100.00
49216;BME280;45943;53.148;8.204;2023-01-31T14:46:11;101429.22;;;8.74;100.00
49216;BME280;45943;53.148;8.204;2023-01-31T14:54:06;101409.13;;;8.81;100.00
49216;BME280;45943;53.148;8.204;2023-01-31T14:59:31;101423.00;;;8.88;100.00
49216;BME280;45943;53.148;8.204;2023-01-31T15:02:20;101416.88;;;8.86;100.00
49216;BME280;45943;53.148;8.204;2023-01-31T15:04:53;101422.50;;;8.96;100.00
49216;BME280;45943;53.148;8.204;2023-01-31T15:07:22;101427.75;;;8.97;100.00
49216;BME280;45943;53.148;8.204;2023-01-31T15:09:48;101414.28;;;8.99;100.00